Tribbett, Mississippi
Current Conditions -  °F | °C
As of 7:53 PM on Friday 31 Oct 2014 (Local Time) from KTUP Reporting Station
Clear Clear  
Wind Chill: 40°   Ceiling: Unl
Heat Index: 47°   Visibility: 10mi
Dew Point: 23°   Wind: 16mph
Humidity: 39%   Direction: 20°NNE
Pressure: 30.22"   Gusts: 25mph
Location:  34.1966°N, 88.7098°W
Report Text: KTUP 010053Z AUTO 02014G22KT 10SM CLR 08/M05 A3022 RMK AO2 PK WND 01028/0021 SLP232 T00831050
Loading
Personal Weather Stations






























Interactive Weather Map
Tropical Storm Tracking
New forecast layout! Learn more

10-Day Weather Forecast

Advertisements
Track Severe Weather on mobile